Kivalina Airport


Codes: PAVL/KVL
Name: Kivalina Airport
City: Kivalina
Country: United States
Elevation: 13 ft.

Photos at Kivalina Airport


   Photos courtesy of SpottingLog. You can add your own sightings and photos by signing up for a free trial today.



No photos found.

Weather at Kivalina Airport


Time (UTC)DescriptionTempratureWindCloud coverageVisibilityPressureHumidity
13-Jun-2024 03:00Broken Clouds3°C7 mph, W59%1238m1014hPa78%
13-Jun-2024 06:00Broken Clouds3°C7 mph, W51%5159m1015hPa79%
13-Jun-2024 09:00Scattered Clouds2°C7 mph, W34%10000m1019hPa87%
13-Jun-2024 12:00Scattered Clouds1°C7 mph, W34%10000m1020hPa89%
13-Jun-2024 15:00Light Rain2°C4 mph, W100%10000m1021hPa89%
13-Jun-2024 18:00Light Rain2°C4 mph, SW100%2600m1022hPa95%
13-Jun-2024 21:00Light Rain2°C2 mph, SW100%8080m1023hPa94%
14-Jun-2024 00:00Overcast Clouds4°C4 mph, SW99%3006m1023hPa81%
14-Jun-2024 03:00Broken Clouds5°C4 mph, W77%782m1023hPa77%
14-Jun-2024 06:00Overcast Clouds5°C4 mph, NW89%4826m1022hPa79%
14-Jun-2024 09:00Overcast Clouds4°C4 mph, NW100%10000m1022hPa79%
14-Jun-2024 12:00Overcast Clouds4°C4 mph, W100%10000m1022hPa80%
14-Jun-2024 15:00Overcast Clouds3°C4 mph, SW100%10000m1023hPa86%
14-Jun-2024 18:00Overcast Clouds4°C7 mph, SW99%1187m1024hPa87%
14-Jun-2024 21:00Overcast Clouds4°C7 mph, S100%1152m1024hPa86%
15-Jun-2024 00:00Overcast Clouds5°C9 mph, S100%882m1024hPa81%
15-Jun-2024 03:00Overcast Clouds5°C9 mph, S100%10000m1023hPa83%
15-Jun-2024 06:00Overcast Clouds4°C9 mph, S100%10000m1023hPa85%
15-Jun-2024 09:00Overcast Clouds4°C7 mph, S97%10000m1024hPa85%
15-Jun-2024 12:00Overcast Clouds4°C9 mph, S99%10000m1024hPa84%
15-Jun-2024 15:00Overcast Clouds4°C11 mph, S100%10000m1024hPa86%
15-Jun-2024 18:00Broken Clouds5°C11 mph, S72%10000m1024hPa82%
15-Jun-2024 21:00Few Clouds5°C11 mph, S22%1722m1024hPa80%
16-Jun-2024 00:00Scattered Clouds6°C13 mph, S41%1520m1023hPa78%
16-Jun-2024 03:00Broken Clouds4°C9 mph, SW59%971m1023hPa84%
16-Jun-2024 06:00Broken Clouds3°C7 mph, S71%950m1023hPa88%
16-Jun-2024 09:00Overcast Clouds2°C7 mph, SE100%926m1023hPa93%
16-Jun-2024 12:00Overcast Clouds2°C7 mph, SE100%3352m1023hPa94%
16-Jun-2024 15:00Overcast Clouds2°C7 mph, SE100%7075m1022hPa91%
16-Jun-2024 18:00Overcast Clouds4°C7 mph, S96%5696m1022hPa83%
16-Jun-2024 21:00Broken Clouds4°C9 mph, S58%1063m1021hPa79%
17-Jun-2024 00:00Broken Clouds5°C7 mph, SW54%799m1020hPa77%
17-Jun-2024 03:00Scattered Clouds5°C7 mph, SW50%748m1019hPa78%
17-Jun-2024 06:00Broken Clouds4°C4 mph, SW53%798m1018hPa80%
17-Jun-2024 09:00Overcast Clouds3°C4 mph, SW85%5206m1017hPa85%
17-Jun-2024 12:00Overcast Clouds2°C4 mph, SW92%10000m1015hPa86%
17-Jun-2024 15:00Overcast Clouds3°C4 mph, W91%10000m1014hPa84%
17-Jun-2024 18:00Broken Clouds7°C11 mph, NW56%10000m1013hPa66%
17-Jun-2024 21:00Clear Sky7°C16 mph, NW3%10000m1012hPa65%
18-Jun-2024 00:00Few Clouds6°C18 mph, NW23%10000m1012hPa67%